createdAt,value
2019-01-29T00:00:03.749Z,3.90
2019-01-29T00:01:04.173Z,5.50
2019-01-29T00:02:04.355Z,4.40
2019-01-29T00:03:04.452Z,4.60
2019-01-29T00:04:04.596Z,4.00
2019-01-29T00:05:04.737Z,2.70
2019-01-29T00:06:04.866Z,3.40
2019-01-29T00:07:05.000Z,3.70
2019-01-29T00:08:05.151Z,3.30
2019-01-29T00:09:05.349Z,4.30
2019-01-29T00:10:05.498Z,3.40
2019-01-29T00:11:05.605Z,2.90
2019-01-29T00:12:05.813Z,4.70
2019-01-29T00:13:06.064Z,4.70
2019-01-29T00:14:06.144Z,2.60
2019-01-29T00:15:06.443Z,3.10
2019-01-29T00:16:06.570Z,5.60
2019-01-29T00:17:06.711Z,6.10
2019-01-29T00:18:06.841Z,3.50
2019-01-29T00:19:07.014Z,8.20
2019-01-29T00:20:07.121Z,5.10
2019-01-29T00:21:07.225Z,5.70
2019-01-29T00:22:07.334Z,4.40
2019-01-29T00:23:07.466Z,4.20
2019-01-29T00:24:07.562Z,4.30
2019-01-29T00:25:07.690Z,3.50
2019-01-29T00:26:07.801Z,5.30
2019-01-29T00:27:07.888Z,4.60
2019-01-29T00:28:08.104Z,3.80
2019-01-29T00:29:08.214Z,5.00
2019-01-29T00:30:08.386Z,3.80
2019-01-29T00:31:08.614Z,4.20
2019-01-29T00:32:08.672Z,7.00
2019-01-29T00:33:08.853Z,3.70
2019-01-29T00:34:09.004Z,4.00
2019-01-29T00:35:09.137Z,4.50
2019-01-29T00:36:09.246Z,4.90
2019-01-29T00:37:09.334Z,4.80
2019-01-29T00:38:09.493Z,3.80
2019-01-29T00:39:09.668Z,3.60
2019-01-29T00:40:09.795Z,3.20
2019-01-29T00:41:09.878Z,3.60
2019-01-29T00:42:10.081Z,4.10
2019-01-29T00:43:10.196Z,5.70
2019-01-29T00:44:10.290Z,4.30
2019-01-29T00:45:10.425Z,5.90
2019-01-29T00:46:10.553Z,5.00
2019-01-29T00:47:10.777Z,3.30
2019-01-29T00:48:10.924Z,3.80
2019-01-29T00:49:11.074Z,4.20
2019-01-29T00:50:11.184Z,4.00
2019-01-29T00:51:11.284Z,4.30
2019-01-29T00:52:11.530Z,5.60
2019-01-29T00:53:11.671Z,3.00
2019-01-29T00:54:11.780Z,4.20
2019-01-29T00:55:11.917Z,8.10
2019-01-29T00:56:12.090Z,3.80
2019-01-29T00:57:12.161Z,3.40
2019-01-29T00:58:12.350Z,3.80
2019-01-29T00:59:12.408Z,2.80
2019-01-29T01:00:12.530Z,4.50
2019-01-29T01:01:12.749Z,4.00
2019-01-29T01:02:12.890Z,5.30
2019-01-29T01:03:12.998Z,3.40
2019-01-29T01:04:13.123Z,4.20
2019-01-29T01:05:13.346Z,3.40
2019-01-29T01:06:13.484Z,4.00
2019-01-29T01:07:13.607Z,3.90
2019-01-29T01:08:13.805Z,2.80
2019-01-29T01:09:13.999Z,3.70
2019-01-29T01:10:14.185Z,3.70
2019-01-29T01:11:14.302Z,5.00
2019-01-29T01:12:14.444Z,5.10
2019-01-29T01:13:14.601Z,6.50
2019-01-29T01:14:14.681Z,4.70
2019-01-29T01:15:14.834Z,3.10
2019-01-29T01:16:14.928Z,4.60
2019-01-29T01:17:15.147Z,5.90
2019-01-29T01:18:15.345Z,4.50
2019-01-29T01:19:15.625Z,4.10
2019-01-29T01:20:15.734Z,5.80
2019-01-29T01:21:15.918Z,4.90
2019-01-29T01:22:16.061Z,4.00
2019-01-29T01:23:16.306Z,3.70
2019-01-29T01:24:16.387Z,3.70
2019-01-29T01:25:16.552Z,8.30
2019-01-29T01:26:16.667Z,5.20
2019-01-29T01:27:16.815Z,5.40
2019-01-29T01:28:16.876Z,3.80
2019-01-29T01:29:17.113Z,3.80
2019-01-29T01:30:17.313Z,3.50
2019-01-29T01:31:17.448Z,3.80
2019-01-29T01:32:17.615Z,4.50
2019-01-29T01:33:17.799Z,4.80
2019-01-29T01:34:17.938Z,3.00
2019-01-29T01:35:18.087Z,2.70
2019-01-29T01:36:18.147Z,5.30
2019-01-29T01:37:18.349Z,5.50
2019-01-29T01:38:18.613Z,4.60
2019-01-29T01:39:18.748Z,5.10
2019-01-29T01:40:18.892Z,5.10
2019-01-29T01:41:19.012Z,6.00
2019-01-29T01:42:19.145Z,5.30
2019-01-29T01:43:19.311Z,4.40
2019-01-29T01:44:19.426Z,6.00
2019-01-29T01:45:19.672Z,5.70
2019-01-29T01:46:19.662Z,3.80
2019-01-29T01:47:19.775Z,3.90
2019-01-29T01:48:20.043Z,4.10
2019-01-29T01:49:20.173Z,4.00
2019-01-29T01:50:20.270Z,4.80
2019-01-29T01:51:20.407Z,3.80
2019-01-29T01:52:20.508Z,3.60
2019-01-29T01:53:20.620Z,3.70
2019-01-29T01:54:20.843Z,4.00
2019-01-29T01:55:20.939Z,4.60
2019-01-29T01:56:20.982Z,3.40
2019-01-29T01:57:21.143Z,4.40
2019-01-29T01:58:21.324Z,5.30
2019-01-29T01:59:21.492Z,5.00
2019-01-29T02:00:21.727Z,4.30
2019-01-29T02:01:21.827Z,3.50
2019-01-29T02:02:22.006Z,4.30
2019-01-29T02:03:22.153Z,6.30
2019-01-29T02:04:22.317Z,4.30
2019-01-29T02:05:22.490Z,4.70
2019-01-29T02:06:22.680Z,5.90
2019-01-29T02:07:22.874Z,3.30
2019-01-29T02:08:23.072Z,3.10
2019-01-29T02:09:26.568Z,4.40
2019-01-29T02:10:27.746Z,4.60
2019-01-29T02:11:27.005Z,4.40
2019-01-29T02:12:27.834Z,4.60
2019-01-29T02:13:26.371Z,3.60
2019-01-29T02:14:26.207Z,3.80
2019-01-29T02:15:25.450Z,4.60
2019-01-29T02:16:30.525Z,6.10
2019-01-29T02:17:26.889Z,5.50
2019-01-29T02:18:27.296Z,4.00
2019-01-29T02:19:24.796Z,3.30
2019-01-29T02:20:25.065Z,4.20
2019-01-29T02:21:25.310Z,5.60
2019-01-29T02:22:25.375Z,6.70
2019-01-29T02:23:25.463Z,5.70
2019-01-29T02:24:25.606Z,5.70
2019-01-29T02:25:25.862Z,3.50
2019-01-29T02:26:25.953Z,4.40
2019-01-29T02:27:26.140Z,4.50
2019-01-29T02:28:26.419Z,4.60
2019-01-29T02:29:26.571Z,4.00
2019-01-29T02:30:26.676Z,4.20
2019-01-29T02:31:26.893Z,3.70
2019-01-29T02:32:27.022Z,4.30
2019-01-29T02:33:27.143Z,3.60
2019-01-29T02:34:27.326Z,5.10
2019-01-29T02:35:27.473Z,5.50
2019-01-29T02:36:27.570Z,5.10
2019-01-29T02:37:27.669Z,3.10
2019-01-29T02:38:28.027Z,3.80
2019-01-29T02:39:30.690Z,3.70
2019-01-29T02:40:28.228Z,5.30
2019-01-29T02:41:28.355Z,4.40
2019-01-29T02:42:28.504Z,2.90
2019-01-29T02:43:28.754Z,3.40
2019-01-29T02:44:28.745Z,4.10
2019-01-29T02:45:28.930Z,4.30
2019-01-29T02:46:29.051Z,6.20
2019-01-29T02:47:29.268Z,5.90
2019-01-29T02:48:29.406Z,4.30
2019-01-29T02:49:29.596Z,5.40
2019-01-29T02:50:29.720Z,3.70
2019-01-29T02:51:29.855Z,4.70
2019-01-29T02:52:29.995Z,4.60
2019-01-29T02:53:30.092Z,7.00
2019-01-29T02:54:30.303Z,6.70
2019-01-29T02:55:30.432Z,3.90
2019-01-29T02:56:30.575Z,4.30
2019-01-29T02:57:30.660Z,3.90
2019-01-29T02:58:30.861Z,6.00
2019-01-29T02:59:30.954Z,5.50
2019-01-29T03:00:31.246Z,4.90
2019-01-29T03:01:31.409Z,4.20
2019-01-29T03:02:31.589Z,4.90
2019-01-29T03:03:31.725Z,5.90
2019-01-29T03:04:31.999Z,4.10
2019-01-29T03:05:32.077Z,4.00
2019-01-29T03:06:32.317Z,5.90
2019-01-29T03:07:32.510Z,4.60
2019-01-29T03:08:32.695Z,4.40
2019-01-29T03:09:32.802Z,4.10
2019-01-29T03:10:32.950Z,4.90
2019-01-29T03:11:33.209Z,4.70
2019-01-29T03:12:33.261Z,6.70
2019-01-29T03:13:33.404Z,4.50
2019-01-29T03:14:33.512Z,5.10
2019-01-29T03:15:33.603Z,4.80
2019-01-29T03:16:33.823Z,4.70
2019-01-29T03:17:34.042Z,5.90
2019-01-29T03:18:34.135Z,6.70
2019-01-29T03:19:34.281Z,4.40
2019-01-29T03:20:34.488Z,5.10
2019-01-29T03:21:34.601Z,4.30
2019-01-29T03:22:34.700Z,4.00
2019-01-29T03:23:34.796Z,4.80
2019-01-29T03:24:34.974Z,4.70
2019-01-29T03:25:35.244Z,4.30
2019-01-29T03:26:35.204Z,5.50
2019-01-29T03:27:35.475Z,5.00
2019-01-29T03:28:35.577Z,5.90
2019-01-29T03:29:35.739Z,5.00
2019-01-29T03:30:35.875Z,6.30
2019-01-29T03:31:35.915Z,3.90
2019-01-29T03:32:36.084Z,3.90
2019-01-29T03:33:36.261Z,4.80
2019-01-29T03:34:36.419Z,4.90
2019-01-29T03:35:36.580Z,5.30
2019-01-29T03:36:36.750Z,5.90
2019-01-29T03:37:36.931Z,5.20
2019-01-29T03:38:37.091Z,4.10
2019-01-29T03:39:37.293Z,4.40
2019-01-29T03:40:37.451Z,4.90
2019-01-29T03:41:37.695Z,3.80
2019-01-29T03:42:37.863Z,5.80
2019-01-29T03:43:37.852Z,5.10
2019-01-29T03:44:38.019Z,5.50
2019-01-29T03:45:38.201Z,3.90
2019-01-29T03:46:38.372Z,4.50
2019-01-29T03:47:38.547Z,4.80
2019-01-29T03:48:38.754Z,4.10
2019-01-29T03:49:38.902Z,4.90
2019-01-29T03:50:39.089Z,6.10
2019-01-29T03:51:39.271Z,6.00
2019-01-29T03:52:39.420Z,5.20
2019-01-29T03:53:39.581Z,4.00
2019-01-29T03:54:39.914Z,5.30
2019-01-29T03:55:39.912Z,3.70
2019-01-29T03:56:40.043Z,5.90
2019-01-29T03:57:40.152Z,4.80
2019-01-29T03:58:40.325Z,6.00
2019-01-29T03:59:40.425Z,4.80
2019-01-29T04:00:40.619Z,7.30
2019-01-29T04:01:40.762Z,5.60
2019-01-29T04:02:40.889Z,5.20
2019-01-29T04:03:41.094Z,5.70
2019-01-29T04:04:41.323Z,5.60
2019-01-29T04:05:41.431Z,5.40
2019-01-29T04:06:41.622Z,5.00
2019-01-29T04:07:41.754Z,5.20
2019-01-29T04:08:41.832Z,4.70
2019-01-29T04:09:42.124Z,6.00
2019-01-29T04:10:42.234Z,5.20
2019-01-29T04:11:42.402Z,5.80
2019-01-29T04:12:42.510Z,4.70
2019-01-29T04:13:42.677Z,5.10
2019-01-29T04:14:42.815Z,5.50
2019-01-29T04:15:42.903Z,5.40
2019-01-29T04:16:43.257Z,4.80
2019-01-29T04:17:43.344Z,5.80
2019-01-29T04:18:43.339Z,5.80
2019-01-29T04:19:43.659Z,4.90
2019-01-29T04:20:43.668Z,5.00
2019-01-29T04:21:43.935Z,5.70
2019-01-29T04:22:48.811Z,5.80
2019-01-29T04:23:47.678Z,7.60
2019-01-29T04:24:46.618Z,7.40
2019-01-29T04:25:46.209Z,7.70
2019-01-29T04:26:46.028Z,5.40
2019-01-29T04:27:49.075Z,5.40
2019-01-29T04:28:47.222Z,5.60
2019-01-29T04:29:45.498Z,8.50
2019-01-29T04:30:45.509Z,5.40
2019-01-29T04:31:45.645Z,6.30
2019-01-29T04:32:46.453Z,6.60
2019-01-29T04:33:46.016Z,6.00
2019-01-29T04:34:46.170Z,6.60
2019-01-29T04:35:49.102Z,6.20
2019-01-29T04:36:48.902Z,5.80
2019-01-29T04:37:48.979Z,5.40
2019-01-29T04:38:48.364Z,6.40
2019-01-29T04:39:46.918Z,5.60
2019-01-29T04:40:47.157Z,5.60
2019-01-29T04:41:47.114Z,6.20
2019-01-29T04:42:47.367Z,5.90
2019-01-29T04:43:47.511Z,5.40
2019-01-29T04:44:47.715Z,5.50
2019-01-29T04:45:47.798Z,4.70
2019-01-29T04:46:48.203Z,5.90
2019-01-29T04:47:48.372Z,4.50
2019-01-29T04:48:48.387Z,5.40
2019-01-29T04:49:48.672Z,5.30
2019-01-29T04:50:48.800Z,7.90
2019-01-29T04:51:48.779Z,5.60
2019-01-29T04:52:49.297Z,7.50
2019-01-29T04:53:57.257Z,6.00
2019-01-29T04:54:49.277Z,5.80
2019-01-29T04:55:49.462Z,4.90
2019-01-29T04:56:49.642Z,6.20
2019-01-29T04:57:49.801Z,6.20
2019-01-29T04:58:49.976Z,6.70
2019-01-29T04:59:50.168Z,6.10
2019-01-29T05:00:50.336Z,6.00
2019-01-29T05:01:50.490Z,4.70
2019-01-29T05:02:50.685Z,6.90
2019-01-29T05:03:50.827Z,5.30
2019-01-29T05:04:51.029Z,6.60
2019-01-29T05:05:51.167Z,5.60
2019-01-29T05:06:51.338Z,7.50
2019-01-29T05:07:51.483Z,6.50
2019-01-29T05:08:51.656Z,5.90
2019-01-29T05:09:51.816Z,7.80
2019-01-29T05:10:52.890Z,8.70
2019-01-29T05:11:53.504Z,7.20
2019-01-29T05:12:53.598Z,7.00
2019-01-29T05:13:56.126Z,7.10
2019-01-29T05:14:53.134Z,5.70
2019-01-29T05:15:53.497Z,5.90
2019-01-29T05:16:53.925Z,7.20
2019-01-29T05:17:54.240Z,8.30
2019-01-29T05:18:54.032Z,7.10
2019-01-29T05:19:54.318Z,7.10
2019-01-29T05:20:54.279Z,8.00
2019-01-29T05:21:55.311Z,7.10
2019-01-29T05:22:55.654Z,8.10
2019-01-29T05:23:55.859Z,6.50
2019-01-29T05:24:55.338Z,7.00
2019-01-29T05:25:54.752Z,7.10
2019-01-29T05:26:55.339Z,6.00
2019-01-29T05:27:54.660Z,7.20
2019-01-29T05:28:54.859Z,7.20
2019-01-29T05:29:55.037Z,9.00
2019-01-29T05:30:55.831Z,9.80
2019-01-29T05:31:56.158Z,8.70
2019-01-29T05:32:55.626Z,8.20
2019-01-29T05:33:56.994Z,8.60
2019-01-29T05:34:56.686Z,7.90
2019-01-29T05:35:57.884Z,9.80
2019-01-29T05:36:58.742Z,8.00
2019-01-29T05:37:57.853Z,9.00
2019-01-29T05:38:58.855Z,9.30
2019-01-29T05:40:00.053Z,10.40
2019-01-29T05:40:57.809Z,9.50
2019-01-29T05:41:58.221Z,10.50
2019-01-29T05:42:58.812Z,8.40
2019-01-29T05:43:58.932Z,8.80
2019-01-29T05:44:59.758Z,10.80
2019-01-29T05:45:58.797Z,9.90
2019-01-29T05:46:59.145Z,8.10
2019-01-29T05:48:00.458Z,8.80
2019-01-29T05:48:59.222Z,7.90
2019-01-29T05:49:59.445Z,10.90
2019-01-29T05:51:00.743Z,8.80
2019-01-29T05:51:59.820Z,9.60
2019-01-29T05:53:00.247Z,9.20
2019-01-29T05:54:00.087Z,10.00
2019-01-29T05:55:00.268Z,8.40
2019-01-29T05:56:00.900Z,10.70
2019-01-29T05:57:01.568Z,10.00
2019-01-29T05:57:59.628Z,11.10
2019-01-29T05:58:59.853Z,10.90
2019-01-29T05:59:59.961Z,10.60
2019-01-29T06:01:00.060Z,9.70
2019-01-29T06:02:00.202Z,12.00
2019-01-29T06:03:00.428Z,10.60
2019-01-29T06:04:00.661Z,12.40
2019-01-29T06:05:03.607Z,11.50
2019-01-29T06:06:00.867Z,13.40
2019-01-29T06:07:03.947Z,14.80
2019-01-29T06:08:01.211Z,14.50
2019-01-29T06:09:01.456Z,13.00
2019-01-29T06:10:01.570Z,12.50
2019-01-29T06:11:01.730Z,12.20
2019-01-29T06:12:01.882Z,15.10
2019-01-29T06:13:01.982Z,14.50
2019-01-29T06:14:03.518Z,14.30
2019-01-29T06:15:02.355Z,13.20
2019-01-29T06:16:02.539Z,15.80
2019-01-29T06:17:02.731Z,13.50
2019-01-29T06:18:02.892Z,11.40
2019-01-29T06:19:03.053Z,11.60
2019-01-29T06:20:05.271Z,11.80
2019-01-29T06:21:03.442Z,13.10
2019-01-29T06:22:03.618Z,12.90
2019-01-29T06:23:03.796Z,12.30
2019-01-29T06:24:03.959Z,16.20
2019-01-29T06:25:04.160Z,16.70
2019-01-29T06:26:04.342Z,13.70
2019-01-29T06:27:04.521Z,17.60
2019-01-29T06:28:04.748Z,17.80
2019-01-29T06:29:04.828Z,16.20
2019-01-29T06:30:05.058Z,12.90
2019-01-29T06:31:05.189Z,13.00
2019-01-29T06:32:05.331Z,13.50
2019-01-29T06:33:06.895Z,14.60
2019-01-29T06:34:05.716Z,14.60
2019-01-29T06:35:05.880Z,13.30
2019-01-29T06:36:06.056Z,12.90
2019-01-29T06:37:06.295Z,14.60
2019-01-29T06:38:06.373Z,12.90
2019-01-29T06:39:06.537Z,10.90
2019-01-29T06:40:06.695Z,14.90
2019-01-29T06:41:06.859Z,13.70
2019-01-29T06:42:07.025Z,13.50
2019-01-29T06:43:07.191Z,13.20
2019-01-29T06:44:07.357Z,13.50
2019-01-29T06:45:07.521Z,12.60
2019-01-29T06:46:07.690Z,14.20
2019-01-29T06:47:07.938Z,14.80
2019-01-29T06:48:08.005Z,12.70
2019-01-29T06:49:08.169Z,12.70
2019-01-29T06:50:08.365Z,13.30
2019-01-29T06:51:08.560Z,12.30
2019-01-29T06:52:08.721Z,12.50
2019-01-29T06:53:08.915Z,13.00
2019-01-29T06:54:09.103Z,12.90
2019-01-29T06:55:09.283Z,13.30
2019-01-29T06:56:09.410Z,13.60
2019-01-29T06:57:09.578Z,13.80
2019-01-29T06:58:09.758Z,12.40
2019-01-29T06:59:09.953Z,14.10
2019-01-29T07:00:10.135Z,13.60
2019-01-29T07:01:10.295Z,13.80
2019-01-29T07:02:10.462Z,11.50
2019-01-29T07:03:10.641Z,15.80
2019-01-29T07:04:10.798Z,14.30
2019-01-29T07:05:10.959Z,13.70
2019-01-29T07:06:11.239Z,12.70
2019-01-29T07:07:11.325Z,13.70
2019-01-29T07:08:11.515Z,12.60
2019-01-29T07:09:11.665Z,15.80
2019-01-29T07:10:11.841Z,13.70
2019-01-29T07:11:11.997Z,14.90
2019-01-29T07:12:12.179Z,13.80
2019-01-29T07:13:12.328Z,13.20
2019-01-29T07:14:12.522Z,13.00
2019-01-29T07:15:12.662Z,13.90
2019-01-29T07:16:12.821Z,14.20
2019-01-29T07:17:13.015Z,15.10
2019-01-29T07:18:13.090Z,12.90
2019-01-29T07:19:13.270Z,13.20
2019-01-29T07:20:13.414Z,11.50
2019-01-29T07:21:13.610Z,12.10
2019-01-29T07:22:13.833Z,11.60
2019-01-29T07:23:13.936Z,13.20
2019-01-29T07:24:14.106Z,12.30
2019-01-29T07:25:14.245Z,13.30
2019-01-29T07:26:14.624Z,11.60
2019-01-29T07:27:14.591Z,13.60
2019-01-29T07:28:15.206Z,12.00
2019-01-29T07:29:15.252Z,13.30
2019-01-29T07:30:15.266Z,11.00
2019-01-29T07:31:15.198Z,11.60
2019-01-29T07:32:17.160Z,10.80
2019-01-29T07:33:15.504Z,12.50
2019-01-29T07:34:15.643Z,11.80
2019-01-29T07:35:15.924Z,11.70
2019-01-29T07:36:15.983Z,12.20
2019-01-29T07:37:21.866Z,12.10
2019-01-29T07:38:18.159Z,11.90
2019-01-29T07:39:16.455Z,13.70
2019-01-29T07:40:16.689Z,11.70
2019-01-29T07:41:16.812Z,10.60
2019-01-29T07:42:17.169Z,10.70
2019-01-29T07:43:17.102Z,12.00
2019-01-29T07:44:17.249Z,12.60
2019-01-29T07:45:17.421Z,13.10
2019-01-29T07:46:17.610Z,13.70
2019-01-29T07:47:17.792Z,12.90
2019-01-29T07:48:17.957Z,11.20
2019-01-29T07:49:18.118Z,12.40
2019-01-29T07:50:18.290Z,11.40
2019-01-29T07:51:18.681Z,12.60
2019-01-29T07:52:18.683Z,11.50
2019-01-29T07:53:18.893Z,12.10
2019-01-29T07:54:19.017Z,10.60
2019-01-29T07:55:19.178Z,12.00
2019-01-29T07:56:19.382Z,11.40
2019-01-29T07:57:19.446Z,13.90
2019-01-29T07:58:20.088Z,11.40
2019-01-29T07:59:32.545Z,12.10
2019-01-29T08:00:19.964Z,11.40
2019-01-29T08:01:19.989Z,13.00
2019-01-29T08:02:20.158Z,10.00
2019-01-29T08:03:20.306Z,10.60
2019-01-29T08:04:21.137Z,10.90
2019-01-29T08:05:20.933Z,11.20
2019-01-29T08:06:20.796Z,10.60
2019-01-29T08:07:21.319Z,11.10
2019-01-29T08:08:22.049Z,13.10
2019-01-29T08:09:21.288Z,9.80
2019-01-29T08:10:21.517Z,11.90
2019-01-29T08:11:21.675Z,12.10
2019-01-29T08:12:23.977Z,12.70
2019-01-29T08:13:21.960Z,10.00
2019-01-29T08:14:22.453Z,10.70
2019-01-29T08:15:22.363Z,13.10
2019-01-29T08:16:22.535Z,11.80
2019-01-29T08:17:26.427Z,10.70
2019-01-29T08:18:24.878Z,12.60
2019-01-29T08:19:24.236Z,11.50
2019-01-29T08:20:23.718Z,12.00
2019-01-29T08:21:23.773Z,10.50
2019-01-29T08:22:23.880Z,11.00
2019-01-29T08:23:24.606Z,11.20
2019-01-29T08:24:25.121Z,10.80
2019-01-29T08:25:24.077Z,11.40
2019-01-29T08:26:25.199Z,12.60
2019-01-29T08:27:26.990Z,10.80
2019-01-29T08:28:25.067Z,11.70
2019-01-29T08:29:25.438Z,11.60
2019-01-29T08:30:27.148Z,10.90
2019-01-29T08:31:24.817Z,11.70
2019-01-29T08:32:24.874Z,11.40
2019-01-29T08:33:24.969Z,10.80
2019-01-29T08:34:25.096Z,12.00
2019-01-29T08:35:25.268Z,11.20
2019-01-29T08:36:25.464Z,11.10
2019-01-29T08:37:25.649Z,13.20
2019-01-29T08:38:25.903Z,19.30
2019-01-29T08:39:27.978Z,18.70
2019-01-29T08:40:26.481Z,18.20
2019-01-29T08:41:26.386Z,21.30
2019-01-29T08:42:34.077Z,16.90
2019-01-29T08:43:26.884Z,15.30
2019-01-29T08:44:26.943Z,13.20
2019-01-29T08:45:27.095Z,16.60
2019-01-29T08:46:27.322Z,12.70
2019-01-29T08:47:27.347Z,11.30
2019-01-29T08:48:27.540Z,12.80
2019-01-29T08:49:27.649Z,14.40
2019-01-29T08:50:27.805Z,13.70
2019-01-29T08:51:28.230Z,13.70
2019-01-29T08:52:28.015Z,12.50
2019-01-29T08:53:28.113Z,12.40
2019-01-29T08:54:28.196Z,11.20
2019-01-29T08:55:28.492Z,9.50
2019-01-29T08:56:28.631Z,12.00
2019-01-29T08:57:28.766Z,10.60
2019-01-29T08:58:29.244Z,11.90
2019-01-29T08:59:29.154Z,11.10
2019-01-29T09:00:29.475Z,11.60
2019-01-29T09:01:29.513Z,11.80
2019-01-29T09:02:29.643Z,11.30
2019-01-29T09:03:29.764Z,8.70
2019-01-29T09:04:29.872Z,10.80
2019-01-29T09:05:30.019Z,9.40
2019-01-29T09:06:30.116Z,10.40
2019-01-29T09:07:30.255Z,10.80
2019-01-29T09:08:30.778Z,9.60
2019-01-29T09:09:30.535Z,10.10
2019-01-29T09:10:30.693Z,12.60
2019-01-29T09:11:30.806Z,14.10
2019-01-29T09:12:32.679Z,15.20
2019-01-29T09:13:32.109Z,13.80
2019-01-29T09:14:31.354Z,13.70
2019-01-29T09:15:31.421Z,14.00
2019-01-29T09:16:31.868Z,13.20
2019-01-29T09:17:35.287Z,11.70
2019-01-29T09:18:33.728Z,10.50
2019-01-29T09:19:31.928Z,11.10
2019-01-29T09:20:32.016Z,10.20
2019-01-29T09:21:32.213Z,10.40
2019-01-29T09:22:32.576Z,10.30
2019-01-29T09:23:32.667Z,10.60
2019-01-29T09:24:32.777Z,9.80
2019-01-29T09:25:32.968Z,8.40
2019-01-29T09:26:33.169Z,8.30
2019-01-29T09:27:34.160Z,8.30
2019-01-29T09:28:35.980Z,9.50
2019-01-29T09:29:34.425Z,9.00
2019-01-29T09:30:35.043Z,9.20
2019-01-29T09:31:35.119Z,8.80
2019-01-29T09:32:34.115Z,9.20
2019-01-29T09:33:34.233Z,9.20
2019-01-29T09:34:35.533Z,7.60
2019-01-29T09:35:34.544Z,9.80
2019-01-29T09:36:34.641Z,8.70
2019-01-29T09:37:34.870Z,10.20
2019-01-29T09:38:34.960Z,12.20
2019-01-29T09:39:35.207Z,9.10
2019-01-29T09:40:35.249Z,8.20
2019-01-29T09:41:35.484Z,7.20
2019-01-29T09:42:35.720Z,8.80
2019-01-29T09:43:35.779Z,8.80
2019-01-29T09:44:36.019Z,10.60
2019-01-29T09:45:36.129Z,7.80
2019-01-29T09:46:37.168Z,8.60
2019-01-29T09:47:36.390Z,8.90
2019-01-29T09:48:36.517Z,9.30
2019-01-29T09:49:36.699Z,8.70
2019-01-29T09:50:36.751Z,9.70
2019-01-29T09:51:36.970Z,9.30
2019-01-29T09:52:37.261Z,10.70
2019-01-29T09:53:37.330Z,8.30
2019-01-29T09:54:37.562Z,8.30
2019-01-29T09:55:37.677Z,9.20
2019-01-29T09:56:38.382Z,8.70
2019-01-29T09:57:42.302Z,8.50
2019-01-29T09:58:42.724Z,10.90
2019-01-29T09:59:38.141Z,11.10
2019-01-29T10:00:38.336Z,9.40
2019-01-29T10:01:38.542Z,8.80
2019-01-29T10:02:38.781Z,8.20
2019-01-29T10:03:38.900Z,9.10
2019-01-29T10:04:39.120Z,7.50
2019-01-29T10:05:39.203Z,9.30
2019-01-29T10:06:39.498Z,9.00
2019-01-29T10:07:39.624Z,9.40
2019-01-29T10:08:39.705Z,7.50
2019-01-29T10:09:40.013Z,9.40
2019-01-29T10:10:40.106Z,8.20
2019-01-29T10:11:40.305Z,11.90
2019-01-29T10:12:40.520Z,13.10
2019-01-29T10:13:40.808Z,7.90
2019-01-29T10:14:41.257Z,7.90
2019-01-29T10:15:41.140Z,8.80
2019-01-29T10:16:41.386Z,9.00
2019-01-29T10:17:41.408Z,7.00
2019-01-29T10:18:41.504Z,8.30
2019-01-29T10:19:41.646Z,9.00
2019-01-29T10:20:41.729Z,8.10
2019-01-29T10:21:42.008Z,10.60
2019-01-29T10:22:42.150Z,9.90
2019-01-29T10:23:42.244Z,9.00
2019-01-29T10:24:42.487Z,7.70
2019-01-29T10:25:42.564Z,9.10
2019-01-29T10:26:42.828Z,9.30
2019-01-29T10:27:42.964Z,9.60
2019-01-29T10:28:43.097Z,8.70
2019-01-29T10:29:43.171Z,7.90
2019-01-29T10:30:43.399Z,9.20
2019-01-29T10:31:43.605Z,7.60
2019-01-29T10:32:43.871Z,8.40
2019-01-29T10:33:43.984Z,10.30
2019-01-29T10:34:44.766Z,9.60
2019-01-29T10:35:44.344Z,8.40
2019-01-29T10:36:44.417Z,8.30
2019-01-29T10:37:44.489Z,8.10
2019-01-29T10:38:44.735Z,6.70
2019-01-29T10:39:44.938Z,7.40
2019-01-29T10:40:45.563Z,7.80
2019-01-29T10:41:45.237Z,9.50
2019-01-29T10:42:45.360Z,6.10
2019-01-29T10:43:45.442Z,7.40
2019-01-29T10:44:45.699Z,5.50
2019-01-29T10:45:46.002Z,7.60
2019-01-29T10:46:46.030Z,6.40
2019-01-29T10:47:46.133Z,5.40
2019-01-29T10:48:46.225Z,4.70
2019-01-29T10:49:46.411Z,7.20
2019-01-29T10:50:46.879Z,4.80
2019-01-29T10:51:46.842Z,6.90
2019-01-29T10:52:47.020Z,6.40
2019-01-29T10:53:47.190Z,7.70
2019-01-29T10:54:47.402Z,8.90
2019-01-29T10:55:47.742Z,7.00
2019-01-29T10:56:47.546Z,6.30
2019-01-29T10:57:48.813Z,6.60
2019-01-29T10:58:47.930Z,5.90
2019-01-29T10:59:48.029Z,6.20
2019-01-29T11:00:48.229Z,6.70
2019-01-29T11:01:48.403Z,5.40
2019-01-29T11:02:48.494Z,6.50
2019-01-29T11:03:48.693Z,6.10
2019-01-29T11:04:48.790Z,5.60
2019-01-29T11:05:48.919Z,5.20
2019-01-29T11:06:49.003Z,5.30
2019-01-29T11:07:49.241Z,7.20
2019-01-29T11:08:49.435Z,6.80
2019-01-29T11:09:49.497Z,6.50
2019-01-29T11:10:49.692Z,5.60
2019-01-29T11:11:49.948Z,6.50
2019-01-29T11:12:50.117Z,7.30
2019-01-29T11:13:50.339Z,7.10
2019-01-29T11:14:50.535Z,7.00
2019-01-29T11:15:53.696Z,6.80
2019-01-29T11:16:50.872Z,6.90
2019-01-29T11:17:51.546Z,7.80
2019-01-29T11:18:51.215Z,6.40
2019-01-29T11:19:51.564Z,6.60
2019-01-29T11:20:51.539Z,7.00
2019-01-29T11:21:51.617Z,5.70
2019-01-29T11:22:51.734Z,5.50
2019-01-29T11:23:51.923Z,6.20
2019-01-29T11:24:52.030Z,5.20
2019-01-29T11:25:56.075Z,4.80
2019-01-29T11:26:52.468Z,5.00
2019-01-29T11:27:52.565Z,7.00
2019-01-29T11:28:52.785Z,5.40
2019-01-29T11:29:53.005Z,5.90
2019-01-29T11:30:53.211Z,6.30
2019-01-29T11:31:53.238Z,7.10
2019-01-29T11:32:53.549Z,6.80
2019-01-29T11:33:53.631Z,5.70
2019-01-29T11:34:53.884Z,5.10
2019-01-29T11:35:53.870Z,5.40
2019-01-29T11:36:53.945Z,4.90
2019-01-29T11:37:54.160Z,6.00
2019-01-29T11:38:54.449Z,5.50
2019-01-29T11:39:54.565Z,6.00
2019-01-29T11:40:54.694Z,7.40
2019-01-29T11:41:55.011Z,5.90
2019-01-29T11:42:55.004Z,5.60
2019-01-29T11:43:55.203Z,6.60
2019-01-29T11:44:55.492Z,4.90
2019-01-29T11:45:55.678Z,4.50
2019-01-29T11:46:55.731Z,5.60
2019-01-29T11:47:56.072Z,7.20
2019-01-29T11:48:55.940Z,5.20
2019-01-29T11:49:56.441Z,4.80
2019-01-29T11:50:56.413Z,5.40
2019-01-29T11:51:56.313Z,6.50
2019-01-29T11:53:00.254Z,7.60
2019-01-29T11:53:56.950Z,7.40
2019-01-29T11:54:56.926Z,6.60
2019-01-29T11:56:04.297Z,6.70
2019-01-29T11:56:57.153Z,6.60
2019-01-29T11:57:57.386Z,5.80
2019-01-29T11:58:57.512Z,5.10
2019-01-29T11:59:57.880Z,6.40
2019-01-29T12:00:57.728Z,7.10
2019-01-29T12:01:57.826Z,5.80
2019-01-29T12:02:57.919Z,5.60
2019-01-29T12:03:58.251Z,6.20
2019-01-29T12:04:58.359Z,7.80
2019-01-29T12:05:58.499Z,7.10
2019-01-29T12:06:58.787Z,6.10
2019-01-29T12:07:58.789Z,5.60
2019-01-29T12:08:58.874Z,6.40
2019-01-29T12:09:59.200Z,6.80
2019-01-29T12:10:59.286Z,5.60
2019-01-29T12:11:59.351Z,5.10
2019-01-29T12:12:59.625Z,5.30
2019-01-29T12:13:59.851Z,5.70
2019-01-29T12:14:59.923Z,6.30
2019-01-29T12:16:00.148Z,7.00
2019-01-29T12:17:00.264Z,6.20
2019-01-29T12:18:00.441Z,6.30
2019-01-29T12:19:00.948Z,4.60
2019-01-29T12:20:00.756Z,5.80
2019-01-29T12:21:00.963Z,7.10
2019-01-29T12:22:01.008Z,6.40
2019-01-29T12:23:01.183Z,6.20
2019-01-29T12:24:01.350Z,6.60
2019-01-29T12:25:01.546Z,6.80
2019-01-29T12:26:01.652Z,5.40
2019-01-29T12:27:01.757Z,6.60
2019-01-29T12:28:01.886Z,6.10
2019-01-29T12:29:02.711Z,6.50
2019-01-29T12:30:02.318Z,5.70
2019-01-29T12:31:02.271Z,5.30
2019-01-29T12:32:02.340Z,5.70
2019-01-29T12:33:02.588Z,5.90
2019-01-29T12:34:04.300Z,6.70
2019-01-29T12:35:02.891Z,6.80
2019-01-29T12:36:02.990Z,6.20
2019-01-29T12:37:03.142Z,5.60
2019-01-29T12:38:03.244Z,6.40
2019-01-29T12:39:03.510Z,6.50
2019-01-29T12:40:03.647Z,6.40
2019-01-29T12:41:03.764Z,5.50
2019-01-29T12:42:03.921Z,7.30
2019-01-29T12:43:11.735Z,6.00
2019-01-29T12:44:04.269Z,6.60
2019-01-29T12:45:04.394Z,6.10
2019-01-29T12:46:04.697Z,8.50
2019-01-29T12:47:04.799Z,8.10
2019-01-29T12:48:04.961Z,6.50
2019-01-29T12:49:04.842Z,7.10
2019-01-29T12:50:06.301Z,6.20
2019-01-29T12:51:07.878Z,5.80
2019-01-29T12:52:05.368Z,8.70
2019-01-29T12:53:05.479Z,8.50
2019-01-29T12:54:05.626Z,6.10
2019-01-29T12:55:05.745Z,6.70
2019-01-29T12:56:05.934Z,6.70
2019-01-29T12:57:06.044Z,6.60
2019-01-29T12:58:06.160Z,6.00
2019-01-29T12:59:06.949Z,5.80
2019-01-29T13:00:06.423Z,5.20
2019-01-29T13:01:06.744Z,5.20
2019-01-29T13:02:06.828Z,5.10
2019-01-29T13:03:07.039Z,5.20
2019-01-29T13:04:07.163Z,7.80
2019-01-29T13:05:07.289Z,6.20
2019-01-29T13:06:07.466Z,7.60
2019-01-29T13:07:08.387Z,7.10
2019-01-29T13:08:07.766Z,6.00
2019-01-29T13:09:08.108Z,5.20
2019-01-29T13:10:08.163Z,6.70
2019-01-29T13:11:08.629Z,6.00
2019-01-29T13:12:08.597Z,5.80
2019-01-29T13:13:08.652Z,5.30